createdAt,value
2022-09-14T00:01:26.323Z,14.79
2022-09-14T00:03:56.384Z,13.59
2022-09-14T00:06:23.613Z,13.74
2022-09-14T00:08:55.727Z,13.94
2022-09-14T00:11:24.878Z,15.09
2022-09-14T00:13:52.292Z,12.18
2022-09-14T00:16:40.808Z,15.17
2022-09-14T00:19:17.418Z,14.35
2022-09-14T00:21:44.500Z,11.32
2022-09-14T00:24:12.500Z,15.26
2022-09-14T00:26:39.502Z,14.31
2022-09-14T00:29:06.910Z,13.05
2022-09-14T00:31:36.879Z,15.27
2022-09-14T00:34:05.708Z,15.27
2022-09-14T00:36:34.346Z,15.24
2022-09-14T00:39:01.479Z,15.26
2022-09-14T00:41:32.232Z,11.70
2022-09-14T00:44:27.387Z,14.73
2022-09-14T00:46:57.311Z,14.73
2022-09-14T00:49:26.931Z,15.31
2022-09-14T00:52:18.158Z,15.29
2022-09-14T00:54:57.859Z,13.84
2022-09-14T00:57:27.835Z,14.63
2022-09-14T00:59:55.924Z,15.21
2022-09-14T01:02:25.981Z,15.19
2022-09-14T01:04:53.582Z,14.09
2022-09-14T01:07:40.247Z,15.08
2022-09-14T01:10:28.531Z,14.90
2022-09-14T01:13:20.109Z,14.88
2022-09-14T01:15:56.827Z,14.88
2022-09-14T01:19:10.125Z,14.86
2022-09-14T01:21:41.571Z,14.07
2022-09-14T01:24:17.410Z,14.74
2022-09-14T01:26:44.434Z,14.71
2022-09-14T01:29:17.091Z,14.62
2022-09-14T01:31:44.116Z,14.62
2022-09-14T01:34:25.810Z,12.65
2022-09-14T01:36:59.703Z,14.37
2022-09-14T01:39:30.458Z,13.39
2022-09-14T01:41:59.849Z,14.40
2022-09-14T01:44:34.461Z,14.00
2022-09-14T01:47:10.203Z,13.21
2022-09-14T01:49:37.101Z,14.22
2022-09-14T01:52:19.279Z,14.26
2022-09-14T01:54:57.193Z,14.16
2022-09-14T01:57:36.878Z,14.11
2022-09-14T02:00:09.053Z,12.52
2022-09-14T02:02:48.735Z,13.38
2022-09-14T02:05:28.946Z,5.68
2022-09-14T02:07:56.880Z,12.13
2022-09-14T02:10:24.828Z,13.96
2022-09-14T02:12:53.541Z,12.77
2022-09-14T02:15:20.957Z,13.82
2022-09-14T02:17:48.573Z,13.80
2022-09-14T02:20:27.338Z,12.84
2022-09-14T02:22:54.515Z,13.43
2022-09-14T02:25:21.769Z,13.70
2022-09-14T02:27:48.968Z,13.14
2022-09-14T02:30:17.415Z,12.92
2022-09-14T02:33:10.925Z,13.62
2022-09-14T02:35:56.105Z,13.62
2022-09-14T02:38:32.227Z,13.56
2022-09-14T02:41:05.186Z,13.54
2022-09-14T02:43:51.426Z,13.57
2022-09-14T02:46:27.448Z,13.60
2022-09-14T02:49:19.442Z,13.53
2022-09-14T02:52:15.899Z,13.51
2022-09-14T02:54:59.432Z,12.89
2022-09-14T02:57:27.033Z,12.78
2022-09-14T02:59:55.418Z,12.96
2022-09-14T03:02:23.098Z,11.32
2022-09-14T03:04:50.081Z,12.76
2022-09-14T03:07:16.988Z,12.83
2022-09-14T03:09:43.924Z,12.39
2022-09-14T03:12:10.882Z,13.25
2022-09-14T03:14:37.874Z,5.03
2022-09-14T03:17:05.031Z,12.46
2022-09-14T03:19:31.969Z,11.41
2022-09-14T03:21:58.950Z,12.61
2022-09-14T03:24:25.868Z,10.56
2022-09-14T03:26:52.870Z,11.92
2022-09-14T03:29:20.145Z,12.57
2022-09-14T03:31:47.207Z,4.72
2022-09-14T03:34:14.264Z,8.92
2022-09-14T03:36:41.226Z,13.10
2022-09-14T03:39:08.148Z,11.86
2022-09-14T03:41:35.083Z,10.44
2022-09-14T03:44:02.226Z,10.31
2022-09-14T03:46:29.360Z,6.88
2022-09-14T03:48:56.885Z,10.88
2022-09-14T03:51:24.075Z,11.92
2022-09-14T03:53:51.009Z,12.04
2022-09-14T03:56:20.487Z,12.93
2022-09-14T03:58:48.795Z,12.90
2022-09-14T04:01:21.292Z,12.56
2022-09-14T04:03:49.407Z,12.55
2022-09-14T04:06:17.586Z,12.88
2022-09-14T04:08:46.195Z,11.45
2022-09-14T04:11:19.432Z,12.86
2022-09-14T04:13:47.353Z,12.57
2022-09-14T04:16:15.907Z,12.95
2022-09-14T04:18:43.096Z,13.04
2022-09-14T04:21:18.867Z,13.13
2022-09-14T04:26:34.298Z,13.25
2022-09-14T04:29:01.379Z,12.99
2022-09-14T04:31:29.026Z,13.10
2022-09-14T04:33:57.465Z,11.56
2022-09-14T04:36:28.806Z,13.25
2022-09-14T04:39:00.951Z,12.85
2022-09-14T04:41:29.623Z,12.52
2022-09-14T04:43:57.766Z,12.36
2022-09-14T04:46:29.329Z,13.83
2022-09-14T04:48:56.341Z,8.74
2022-09-14T04:51:27.311Z,12.76
2022-09-14T04:53:56.818Z,10.73
2022-09-14T04:56:24.709Z,13.38
2022-09-14T04:58:54.636Z,14.03
2022-09-14T05:01:27.037Z,8.30
2022-09-14T05:03:55.028Z,14.17
2022-09-14T05:06:25.182Z,14.26
2022-09-14T05:08:53.355Z,12.13
2022-09-14T05:11:23.336Z,12.18
2022-09-14T05:13:50.991Z,12.73
2022-09-14T05:16:19.152Z,14.57
2022-09-14T05:18:46.674Z,14.53
2022-09-14T05:21:17.101Z,14.48
2022-09-14T05:23:45.050Z,14.53
2022-09-14T05:26:12.735Z,13.39
2022-09-14T05:28:40.022Z,11.93
2022-09-14T05:31:09.298Z,14.51
2022-09-14T05:33:36.518Z,13.84
2022-09-14T05:36:08.143Z,14.77
2022-09-14T05:38:37.554Z,13.76
2022-09-14T05:41:06.268Z,12.46
2022-09-14T05:43:33.744Z,14.51
2022-09-14T05:46:10.121Z,13.71
2022-09-14T05:48:38.811Z,11.61
2022-09-14T05:51:17.411Z,14.67
2022-09-14T05:53:49.799Z,14.83
2022-09-14T05:56:17.913Z,14.91
2022-09-14T05:58:46.171Z,14.73
2022-09-14T06:01:14.654Z,14.91
2022-09-14T06:03:42.728Z,15.07
2022-09-14T06:06:11.744Z,15.06
2022-09-14T06:08:38.909Z,13.53
2022-09-14T06:11:11.443Z,14.38
2022-09-14T06:13:38.993Z,14.97
2022-09-14T06:16:08.909Z,14.98
2022-09-14T06:18:37.576Z,14.90
2022-09-14T06:21:05.766Z,14.44
2022-09-14T06:23:33.462Z,15.01
2022-09-14T06:26:02.929Z,13.84
2022-09-14T06:28:30.667Z,14.94
2022-09-14T06:30:58.066Z,13.53
2022-09-14T06:33:25.645Z,13.58
2022-09-14T06:36:00.526Z,15.04
2022-09-14T06:38:28.447Z,14.07
2022-09-14T06:40:57.381Z,14.18
2022-09-14T06:43:25.334Z,14.67
2022-09-14T06:46:16.805Z,15.14
2022-09-14T06:48:48.041Z,15.32
2022-09-14T06:51:28.530Z,15.49
2022-09-14T06:53:57.153Z,15.37
2022-09-14T06:56:24.097Z,14.36
2022-09-14T06:58:52.506Z,14.98
2022-09-14T07:01:21.020Z,15.76
2022-09-14T07:03:48.653Z,15.91
2022-09-14T07:06:18.269Z,15.71
2022-09-14T07:08:45.617Z,14.95
2022-09-14T07:11:14.681Z,16.07
2022-09-14T07:13:41.780Z,15.62
2022-09-14T07:16:09.257Z,15.72
2022-09-14T07:18:36.922Z,16.66
2022-09-14T07:21:14.719Z,16.66
2022-09-14T07:23:44.293Z,16.61
2022-09-14T07:26:24.201Z,16.93
2022-09-14T07:28:55.856Z,11.01
2022-09-14T07:31:31.006Z,17.05
2022-09-14T07:34:00.862Z,16.40
2022-09-14T07:36:31.615Z,15.83
2022-09-14T07:39:01.928Z,15.20
2022-09-14T07:41:30.724Z,17.38
2022-09-14T07:44:00.765Z,16.72
2022-09-14T07:46:36.239Z,17.03
2022-09-14T07:49:03.661Z,17.49
2022-09-14T07:51:31.653Z,17.61
2022-09-14T07:54:01.091Z,12.35
2022-09-14T07:56:28.771Z,17.72
2022-09-14T07:59:11.398Z,12.89
2022-09-14T08:01:45.707Z,16.54
2022-09-14T08:04:12.696Z,15.29
2022-09-14T08:06:40.905Z,15.98
2022-09-14T08:09:11.199Z,17.37
2022-09-14T08:11:38.925Z,17.61
2022-09-14T08:14:10.449Z,17.14
2022-09-14T08:16:39.175Z,16.17
2022-09-14T08:19:11.124Z,16.71
2022-09-14T08:21:40.644Z,17.13
2022-09-14T08:24:13.313Z,15.98
2022-09-14T08:26:42.987Z,15.91
2022-09-14T08:29:09.900Z,13.67
2022-09-14T08:31:43.201Z,16.42
2022-09-14T08:34:10.357Z,18.33
2022-09-14T08:36:39.684Z,17.97
2022-09-14T08:39:09.755Z,15.57
2022-09-14T08:41:46.559Z,17.81
2022-09-14T08:44:26.022Z,17.87
2022-09-14T08:47:12.792Z,17.73
2022-09-14T08:49:54.140Z,18.56
2022-09-14T08:52:29.708Z,18.73
2022-09-14T08:54:59.401Z,18.96
2022-09-14T08:57:43.357Z,18.67
2022-09-14T09:00:15.550Z,18.96
2022-09-14T09:03:04.520Z,18.69
2022-09-14T09:05:52.069Z,18.76
2022-09-14T09:08:31.383Z,17.85
2022-09-14T09:11:00.936Z,18.29
2022-09-14T09:13:33.316Z,17.86
2022-09-14T09:16:07.218Z,19.07
2022-09-14T09:19:06.266Z,17.32
2022-09-14T09:21:39.425Z,18.16
2022-09-14T09:24:29.312Z,18.85
2022-09-14T09:26:56.593Z,17.18
2022-09-14T09:29:23.746Z,18.49
2022-09-14T09:31:58.122Z,18.60
2022-09-14T09:34:29.948Z,18.52
2022-09-14T09:36:57.252Z,17.83
2022-09-14T09:39:24.459Z,18.06
2022-09-14T09:42:15.068Z,18.73
2022-09-14T09:45:02.460Z,19.23
2022-09-14T09:47:32.875Z,19.37
2022-09-14T09:50:18.416Z,19.00
2022-09-14T09:52:57.841Z,18.67
2022-09-14T09:55:28.757Z,17.99
2022-09-14T09:57:55.669Z,13.75
2022-09-14T10:00:32.313Z,18.45
2022-09-14T10:03:02.826Z,13.90
2022-09-14T10:05:32.567Z,18.66
2022-09-14T10:08:08.073Z,17.84
2022-09-14T10:10:40.781Z,19.32
2022-09-14T10:13:26.504Z,17.93
2022-09-14T10:15:54.471Z,19.53
2022-09-14T10:18:22.761Z,18.28
2022-09-14T10:20:53.306Z,20.10
2022-09-14T10:23:20.271Z,20.22
2022-09-14T10:25:49.794Z,19.86
2022-09-14T10:28:28.714Z,18.91
2022-09-14T10:31:16.392Z,19.26
2022-09-14T10:33:43.567Z,18.53
2022-09-14T10:36:19.641Z,19.05
2022-09-14T10:38:58.806Z,18.52
2022-09-14T10:41:48.538Z,18.83
2022-09-14T10:44:34.516Z,18.40
2022-09-14T10:47:10.446Z,18.51
2022-09-14T10:50:00.402Z,17.76
2022-09-14T10:52:53.337Z,19.07
2022-09-14T10:56:04.143Z,18.45
2022-09-14T10:59:03.150Z,18.02
2022-09-14T11:01:49.048Z,19.36
2022-09-14T11:04:30.896Z,19.43
2022-09-14T11:07:13.462Z,19.28
2022-09-14T11:10:11.719Z,18.73
2022-09-14T11:12:49.993Z,18.90
2022-09-14T11:15:35.440Z,19.65
2022-09-14T11:18:23.285Z,19.89
2022-09-14T11:21:01.461Z,20.13
2022-09-14T11:23:46.641Z,18.28
2022-09-14T11:26:32.760Z,18.98
2022-09-14T11:29:33.258Z,19.82
2022-09-14T11:32:21.881Z,19.47
2022-09-14T11:34:56.323Z,19.46
2022-09-14T11:37:39.343Z,19.39
2022-09-14T11:40:24.478Z,17.14
2022-09-14T11:42:58.702Z,19.33
2022-09-14T11:45:37.398Z,19.52
2022-09-14T11:48:44.062Z,19.48
2022-09-14T11:51:24.514Z,19.82
2022-09-14T11:53:51.730Z,19.70
2022-09-14T11:56:27.224Z,17.86
2022-09-14T11:59:00.081Z,19.26
2022-09-14T12:01:38.798Z,19.82
2022-09-14T12:04:15.982Z,19.84
2022-09-14T12:06:44.651Z,19.78
2022-09-14T12:09:15.128Z,19.87
2022-09-14T12:11:43.833Z,19.70
2022-09-14T12:14:31.869Z,19.64
2022-09-14T12:17:40.526Z,19.86
2022-09-14T12:20:26.670Z,19.95
2022-09-14T12:23:15.218Z,20.27
2022-09-14T12:25:54.129Z,18.03
2022-09-14T12:28:51.083Z,19.93
2022-09-14T12:31:36.602Z,18.83
2022-09-14T12:34:20.492Z,19.11
2022-09-14T12:36:47.798Z,19.93
2022-09-14T12:39:33.150Z,19.97
2022-09-14T12:42:02.673Z,20.04
2022-09-14T12:44:41.659Z,19.41
2022-09-14T12:47:38.699Z,19.51
2022-09-14T12:50:29.568Z,18.59
2022-09-14T12:53:00.983Z,19.13
2022-09-14T12:55:54.063Z,19.19
2022-09-14T12:58:44.319Z,18.33
2022-09-14T13:01:28.399Z,18.35
2022-09-14T13:03:57.487Z,19.39
2022-09-14T13:06:33.028Z,19.17
2022-09-14T13:09:00.423Z,16.78
2022-09-14T13:11:39.332Z,17.49
2022-09-14T13:14:16.114Z,19.18
2022-09-14T13:16:49.772Z,18.06
2022-09-14T13:19:28.992Z,19.24
2022-09-14T13:21:58.863Z,18.20
2022-09-14T13:24:29.075Z,19.37
2022-09-14T13:27:00.098Z,16.21
2022-09-14T13:29:28.481Z,15.70
2022-09-14T13:32:02.430Z,19.36
2022-09-14T13:34:34.526Z,19.48
2022-09-14T13:37:02.444Z,17.91
2022-09-14T13:39:32.398Z,19.35
2022-09-14T13:41:59.876Z,18.78
2022-09-14T13:44:31.909Z,19.58
2022-09-14T13:47:01.723Z,16.82
2022-09-14T13:49:29.072Z,17.01
2022-09-14T13:52:31.036Z,19.51
2022-09-14T13:55:32.991Z,19.19
2022-09-14T13:58:12.158Z,19.51
2022-09-14T14:00:58.514Z,19.03
2022-09-14T14:03:30.105Z,19.25
2022-09-14T14:05:57.543Z,19.58
2022-09-14T14:08:27.520Z,19.76
2022-09-14T14:10:55.421Z,18.89
2022-09-14T14:13:32.006Z,19.58
2022-09-14T14:16:21.451Z,19.69
2022-09-14T14:18:57.065Z,19.44
2022-09-14T14:21:31.050Z,19.63
2022-09-14T14:24:18.965Z,19.85
2022-09-14T14:26:51.137Z,19.58
2022-09-14T14:29:18.397Z,18.69
2022-09-14T14:31:45.819Z,18.47
2022-09-14T14:34:25.198Z,16.84
2022-09-14T14:36:52.141Z,17.31
2022-09-14T14:39:21.863Z,19.53
2022-09-14T14:41:49.790Z,18.37
2022-09-14T14:44:20.603Z,19.73
2022-09-14T14:46:47.892Z,19.49
2022-09-14T14:49:17.455Z,18.69
2022-09-14T14:51:44.825Z,16.07
2022-09-14T14:54:12.322Z,19.15
2022-09-14T14:56:39.751Z,18.30
2022-09-14T14:59:36.292Z,18.98
2022-09-14T15:02:05.193Z,15.81
2022-09-14T15:04:32.465Z,17.44
2022-09-14T15:06:59.488Z,17.84
2022-09-14T15:09:29.883Z,18.34
2022-09-14T15:11:56.813Z,17.82
2022-09-14T15:14:27.204Z,18.88
2022-09-14T15:17:00.315Z,18.40
2022-09-14T15:19:28.669Z,18.74
2022-09-14T15:22:00.750Z,16.42
2022-09-14T15:24:28.226Z,15.60
2022-09-14T15:26:55.135Z,16.67
2022-09-14T15:29:22.069Z,18.69
2022-09-14T15:31:49.132Z,18.42
2022-09-14T15:34:16.161Z,18.75
2022-09-14T15:36:51.370Z,13.16
2022-09-14T15:39:21.444Z,18.18
2022-09-14T15:41:49.419Z,15.28
2022-09-14T15:44:17.120Z,16.57
2022-09-14T15:46:45.539Z,18.09
2022-09-14T15:49:15.222Z,14.19
2022-09-14T15:51:43.285Z,15.18
2022-09-14T15:54:10.499Z,14.29
2022-09-14T15:56:37.631Z,14.24
2022-09-14T15:59:05.441Z,17.49
2022-09-14T16:01:33.651Z,17.76
2022-09-14T16:04:03.945Z,17.54
2022-09-14T16:06:32.024Z,16.85
2022-09-14T16:09:02.279Z,17.89
2022-09-14T16:11:29.389Z,16.54
2022-09-14T16:13:56.374Z,17.50
2022-09-14T16:16:23.405Z,10.22
2022-09-14T16:18:50.765Z,9.64
2022-09-14T16:21:21.698Z,17.66
2022-09-14T16:23:51.678Z,14.98
2022-09-14T16:26:23.314Z,14.20
2022-09-14T16:28:52.409Z,17.50
2022-09-14T16:31:22.107Z,17.45
2022-09-14T16:33:51.705Z,17.40
2022-09-14T16:36:21.594Z,17.32
2022-09-14T16:38:51.555Z,12.00
2022-09-14T16:41:18.828Z,16.40
2022-09-14T16:43:45.761Z,16.07
2022-09-14T16:46:15.411Z,17.10
2022-09-14T16:48:44.697Z,17.00
2022-09-14T16:51:13.553Z,16.60
2022-09-14T16:53:45.849Z,16.88
2022-09-14T16:56:16.973Z,16.10
2022-09-14T16:58:45.190Z,16.68
2022-09-14T17:01:20.366Z,16.74
2022-09-14T17:03:49.373Z,15.82
2022-09-14T17:06:19.521Z,16.58
2022-09-14T17:08:47.545Z,16.49
2022-09-14T17:11:16.112Z,16.43
2022-09-14T17:13:44.776Z,16.13
2022-09-14T17:16:19.085Z,14.44
2022-09-14T17:18:49.060Z,16.36
2022-09-14T17:21:21.915Z,16.26
2022-09-14T17:23:49.862Z,16.25
2022-09-14T17:26:19.559Z,16.24
2022-09-14T17:28:49.874Z,16.22
2022-09-14T17:31:29.885Z,14.07
2022-09-14T17:33:58.990Z,16.14
2022-09-14T17:36:29.411Z,16.12
2022-09-14T17:38:59.319Z,16.11
2022-09-14T17:41:30.761Z,14.54
2022-09-14T17:44:01.685Z,10.54
2022-09-14T17:46:30.925Z,10.94
2022-09-14T17:48:59.642Z,8.78
2022-09-14T17:51:28.715Z,15.89
2022-09-14T17:53:57.328Z,15.94
2022-09-14T17:56:27.182Z,11.73
2022-09-14T17:59:00.697Z,15.92
2022-09-14T18:01:27.840Z,15.50
2022-09-14T18:03:58.539Z,15.83
2022-09-14T18:06:29.300Z,14.39
2022-09-14T18:09:01.290Z,15.80
2022-09-14T18:11:29.394Z,15.83
2022-09-14T18:13:56.534Z,15.66
2022-09-14T18:16:25.248Z,14.85
2022-09-14T18:18:54.315Z,15.53
2022-09-14T18:21:21.555Z,14.04
2022-09-14T18:23:50.427Z,14.75
2022-09-14T18:26:18.303Z,15.08
2022-09-14T18:28:45.855Z,10.26
2022-09-14T18:31:16.273Z,15.07
2022-09-14T18:33:48.641Z,7.19
2022-09-14T18:36:15.586Z,15.19
2022-09-14T18:38:43.142Z,12.42
2022-09-14T18:41:12.067Z,15.28
2022-09-14T18:43:43.520Z,14.07
2022-09-14T18:46:10.816Z,11.42
2022-09-14T18:48:39.089Z,13.68
2022-09-14T18:51:06.794Z,14.11
2022-09-14T18:53:34.239Z,14.02
2022-09-14T18:56:03.644Z,13.76
2022-09-14T18:58:37.954Z,14.52
2022-09-14T19:01:05.726Z,15.17
2022-09-14T19:03:33.036Z,15.10
2022-09-14T19:06:09.255Z,15.10
2022-09-14T19:08:36.938Z,13.86
2022-09-14T19:11:09.148Z,12.25
2022-09-14T19:13:36.555Z,11.98
2022-09-14T19:16:11.974Z,14.98
2022-09-14T19:18:39.338Z,12.34
2022-09-14T19:21:07.644Z,14.95
2022-09-14T19:23:35.661Z,12.70
2022-09-14T19:26:22.810Z,13.44
2022-09-14T19:28:49.794Z,11.46
2022-09-14T19:31:19.537Z,13.87
2022-09-14T19:33:46.591Z,14.79
2022-09-14T19:36:20.430Z,14.77
2022-09-14T19:38:49.068Z,14.41
2022-09-14T19:41:16.928Z,14.61
2022-09-14T19:43:44.199Z,14.81
2022-09-14T19:46:14.635Z,14.78
2022-09-14T19:48:42.492Z,14.80
2022-09-14T19:51:16.440Z,13.97
2022-09-14T19:53:45.801Z,14.79
2022-09-14T19:56:14.875Z,14.78
2022-09-14T19:58:48.145Z,14.78
2022-09-14T20:01:17.418Z,11.35
2022-09-14T20:03:45.592Z,14.75
2022-09-14T20:06:23.649Z,12.11
2022-09-14T20:08:53.974Z,14.73
2022-09-14T20:11:24.401Z,13.75
2022-09-14T20:13:54.572Z,12.98
2022-09-14T20:16:25.086Z,14.84
2022-09-14T20:18:52.567Z,14.83
2022-09-14T20:21:22.928Z,14.26
2022-09-14T20:24:15.036Z,14.84
2022-09-14T20:26:42.369Z,13.59
2022-09-14T20:29:09.586Z,14.47
2022-09-14T20:31:36.725Z,14.75
2022-09-14T20:34:04.018Z,13.32
2022-09-14T20:36:31.481Z,13.30
2022-09-14T20:38:59.764Z,14.02
2022-09-14T20:41:29.928Z,12.53
2022-09-14T20:43:58.085Z,13.20
2022-09-14T20:46:32.004Z,14.75
2022-09-14T20:48:59.253Z,12.24
2022-09-14T20:51:26.885Z,12.92
2022-09-14T20:53:54.262Z,13.98
2022-09-14T20:56:23.922Z,12.60
2022-09-14T20:58:54.572Z,13.38
2022-09-14T21:01:22.533Z,14.79
2022-09-14T21:03:50.866Z,13.28
2022-09-14T21:06:23.301Z,14.84
2022-09-14T21:08:50.922Z,14.93
2022-09-14T21:11:21.177Z,14.89
2022-09-14T21:13:48.756Z,14.89
2022-09-14T21:16:18.897Z,14.88
2022-09-14T21:18:48.191Z,13.93
2022-09-14T21:21:17.385Z,9.96
2022-09-14T21:23:44.687Z,9.88
2022-09-14T21:26:13.126Z,13.92
2022-09-14T21:28:41.372Z,14.83
2022-09-14T21:31:13.336Z,14.82
2022-09-14T21:33:42.451Z,14.79
2022-09-14T21:36:12.669Z,14.55
2022-09-14T21:38:39.857Z,13.32
2022-09-14T21:41:08.996Z,14.47
2022-09-14T21:43:40.693Z,12.46
2022-09-14T21:46:09.371Z,13.68
2022-09-14T21:48:37.849Z,14.95
2022-09-14T21:51:09.066Z,14.94
2022-09-14T21:53:36.010Z,12.96
2022-09-14T21:56:05.626Z,14.97
2022-09-14T21:58:33.047Z,13.02
2022-09-14T22:01:01.594Z,14.99
2022-09-14T22:03:29.549Z,13.37
2022-09-14T22:06:05.450Z,14.96
2022-09-14T22:08:33.780Z,14.95
2022-09-14T22:11:09.490Z,14.91
2022-09-14T22:13:36.804Z,14.89
2022-09-14T22:16:13.997Z,14.90
2022-09-14T22:18:42.755Z,12.74
2022-09-14T22:21:10.029Z,14.84
2022-09-14T22:23:36.988Z,13.90
2022-09-14T22:26:09.798Z,14.87
2022-09-14T22:28:40.350Z,13.50
2022-09-14T22:31:08.367Z,11.94
2022-09-14T22:33:36.582Z,13.37
2022-09-14T22:36:04.534Z,10.92
2022-09-14T22:38:34.455Z,13.32
2022-09-14T22:41:12.854Z,14.82
2022-09-14T22:43:41.174Z,5.65
2022-09-14T22:46:09.263Z,14.83
2022-09-14T22:48:37.588Z,14.83
2022-09-14T22:51:07.084Z,14.86
2022-09-14T22:53:35.241Z,14.93
2022-09-14T22:56:19.258Z,12.53
2022-09-14T22:58:47.886Z,14.65
2022-09-14T23:01:24.297Z,14.87
2022-09-14T23:03:56.470Z,14.51
2022-09-14T23:06:30.464Z,14.81
2022-09-14T23:08:58.440Z,14.81
2022-09-14T23:11:25.576Z,12.94
2022-09-14T23:13:53.714Z,11.63
2022-09-14T23:16:26.431Z,14.02
2022-09-14T23:18:55.263Z,14.76
2022-09-14T23:21:22.956Z,13.19
2022-09-14T23:23:54.784Z,14.79
2022-09-14T23:26:22.591Z,11.48
2022-09-14T23:28:58.264Z,14.79
2022-09-14T23:31:25.935Z,14.78
2022-09-14T23:33:54.926Z,14.78
2022-09-14T23:36:22.810Z,14.76
2022-09-14T23:38:50.463Z,14.77
2022-09-14T23:41:19.172Z,13.63
2022-09-14T23:43:46.620Z,14.76
2022-09-14T23:46:14.035Z,13.91
2022-09-14T23:48:41.061Z,12.57
2022-09-14T23:51:09.576Z,14.77
2022-09-14T23:53:37.466Z,14.76
2022-09-14T23:56:05.034Z,14.00
2022-09-14T23:58:32.462Z,14.77
